createdAt,value
2019-03-09T00:00:36.773Z,8.08
2019-03-09T00:03:07.768Z,8.05
2019-03-09T00:05:38.561Z,8.04
2019-03-09T00:08:10.192Z,8.10
2019-03-09T00:10:46.361Z,8.14
2019-03-09T00:13:17.141Z,8.16
2019-03-09T00:15:53.523Z,8.23
2019-03-09T00:18:24.211Z,8.23
2019-03-09T00:20:54.943Z,8.20
2019-03-09T00:23:42.407Z,8.25
2019-03-09T00:26:18.713Z,8.15
2019-03-09T00:29:03.019Z,8.04
2019-03-09T00:31:44.253Z,8.01
2019-03-09T00:34:30.099Z,8.02
2019-03-09T00:37:00.785Z,8.01
2019-03-09T00:39:40.688Z,7.96
2019-03-09T00:42:11.455Z,7.89
2019-03-09T00:44:42.084Z,7.76
2019-03-09T00:47:12.767Z,7.73
2019-03-09T00:49:50.645Z,7.73
2019-03-09T00:52:24.860Z,7.66
2019-03-09T00:54:57.491Z,7.56
2019-03-09T00:57:28.118Z,7.62
2019-03-09T00:59:59.306Z,7.65
2019-03-09T01:02:29.953Z,7.54
2019-03-09T01:05:01.591Z,7.47
2019-03-09T01:07:33.334Z,7.52
2019-03-09T01:10:04.361Z,7.43
2019-03-09T01:12:35.047Z,7.43
2019-03-09T01:15:06.336Z,7.38
2019-03-09T01:17:37.021Z,7.26
2019-03-09T01:20:10.160Z,7.41
2019-03-09T01:22:40.739Z,7.32
2019-03-09T01:25:11.668Z,7.44
2019-03-09T01:27:42.400Z,7.38
2019-03-09T01:30:15.439Z,7.32
2019-03-09T01:32:46.262Z,7.26
2019-03-09T01:35:29.439Z,7.22
2019-03-09T01:38:13.420Z,7.21
2019-03-09T01:40:44.117Z,7.24
2019-03-09T01:43:14.713Z,7.18
2019-03-09T01:45:45.413Z,7.18
2019-03-09T01:48:16.115Z,7.13
2019-03-09T01:50:46.751Z,7.18
2019-03-09T01:53:20.621Z,7.17
2019-03-09T01:55:51.282Z,7.12
2019-03-09T01:58:22.013Z,7.06
2019-03-09T02:00:56.680Z,7.12
2019-03-09T02:03:27.460Z,7.06
2019-03-09T02:05:58.131Z,7.07
2019-03-09T02:08:29.754Z,7.05
2019-03-09T02:11:00.422Z,7.03
2019-03-09T02:13:31.025Z,6.96
2019-03-09T02:16:01.687Z,7.05
2019-03-09T02:18:32.255Z,7.01
2019-03-09T02:21:04.039Z,7.06
2019-03-09T02:23:34.760Z,7.12
2019-03-09T02:26:05.499Z,7.04
2019-03-09T02:28:36.210Z,7.03
2019-03-09T02:31:06.833Z,7.02
2019-03-09T02:33:37.525Z,7.04
2019-03-09T02:36:09.236Z,7.03
2019-03-09T02:38:41.582Z,7.14
2019-03-09T02:41:12.173Z,7.21
2019-03-09T02:43:42.734Z,7.17
2019-03-09T02:46:32.302Z,7.05
2019-03-09T02:49:02.994Z,7.18
2019-03-09T02:51:33.703Z,7.23
2019-03-09T02:54:04.515Z,7.32
2019-03-09T02:57:11.719Z,7.35
2019-03-09T02:59:42.437Z,7.28
2019-03-09T03:02:20.855Z,7.29
2019-03-09T03:04:51.564Z,7.31
2019-03-09T03:07:26.522Z,7.39
2019-03-09T03:10:03.791Z,7.40
2019-03-09T03:12:36.603Z,7.37
2019-03-09T03:15:13.278Z,7.38
2019-03-09T03:17:43.851Z,7.41
2019-03-09T03:20:36.725Z,7.48
2019-03-09T03:23:07.206Z,7.54
2019-03-09T03:25:37.899Z,7.58
2019-03-09T03:28:09.992Z,7.53
2019-03-09T03:30:43.835Z,7.58
2019-03-09T03:33:26.628Z,7.45
2019-03-09T03:36:01.025Z,7.53
2019-03-09T03:38:41.092Z,7.56
2019-03-09T03:41:12.812Z,7.52
2019-03-09T03:43:46.500Z,7.58
2019-03-09T03:46:17.248Z,7.53
2019-03-09T03:48:47.928Z,7.55
2019-03-09T03:51:18.524Z,7.63
2019-03-09T03:53:53.362Z,7.61
2019-03-09T03:56:27.957Z,7.63
2019-03-09T03:58:59.663Z,7.66
2019-03-09T04:01:34.269Z,7.73
2019-03-09T04:04:04.959Z,7.67
2019-03-09T04:06:35.684Z,7.76
2019-03-09T04:09:07.331Z,7.76
2019-03-09T04:11:39.335Z,7.83
2019-03-09T04:14:10.193Z,7.86
2019-03-09T04:16:41.015Z,7.76
2019-03-09T04:19:11.833Z,7.74
2019-03-09T04:21:42.610Z,7.72
2019-03-09T04:24:13.193Z,7.87
2019-03-09T04:26:43.908Z,7.85
2019-03-09T04:29:38.609Z,7.85
2019-03-09T04:32:09.356Z,7.92
2019-03-09T04:34:39.898Z,8.01
2019-03-09T04:37:10.549Z,7.94
2019-03-09T04:39:57.541Z,7.90
2019-03-09T04:42:34.239Z,7.97
2019-03-09T04:45:10.867Z,7.85
2019-03-09T04:47:41.536Z,7.90
2019-03-09T04:50:12.226Z,7.93
2019-03-09T04:52:49.163Z,8.01
2019-03-09T04:55:21.965Z,7.99
2019-03-09T05:01:19.955Z,8.12
2019-03-09T05:04:28.685Z,8.09
2019-03-09T05:07:13.747Z,8.12
2019-03-09T05:10:18.160Z,8.24
2019-03-09T05:13:37.365Z,8.18
2019-03-09T05:16:27.748Z,8.31
2019-03-09T05:19:04.803Z,8.37
2019-03-09T05:21:40.563Z,8.42
2019-03-09T05:24:13.303Z,8.38
2019-03-09T05:26:45.045Z,8.32
2019-03-09T05:29:23.199Z,8.31
2019-03-09T05:32:14.362Z,8.45
2019-03-09T05:34:46.971Z,8.45
2019-03-09T05:37:20.905Z,8.35
2019-03-09T05:39:55.277Z,8.39
2019-03-09T05:42:32.753Z,8.32
2019-03-09T05:45:06.937Z,8.37
2019-03-09T05:47:38.617Z,8.38
2019-03-09T05:50:12.880Z,8.34
2019-03-09T05:52:43.537Z,8.23
2019-03-09T05:55:16.808Z,8.29
2019-03-09T05:57:47.476Z,8.25
2019-03-09T06:00:18.373Z,8.23
2019-03-09T06:02:48.978Z,8.22
2019-03-09T06:05:33.642Z,8.29
2019-03-09T06:08:14.613Z,8.17
2019-03-09T06:10:45.265Z,8.30
2019-03-09T06:13:24.538Z,8.33
2019-03-09T06:15:55.234Z,8.36
2019-03-09T06:18:25.901Z,8.32
2019-03-09T06:21:02.298Z,8.32
2019-03-09T06:23:33.150Z,8.36
2019-03-09T06:26:03.922Z,8.31
2019-03-09T06:28:34.671Z,8.32
2019-03-09T06:31:07.406Z,8.39
2019-03-09T06:33:38.746Z,8.42
2019-03-09T06:36:45.254Z,8.32
2019-03-09T06:39:49.781Z,8.33
2019-03-09T06:42:34.031Z,8.46
2019-03-09T06:45:09.443Z,8.46
2019-03-09T06:47:40.178Z,8.55
2019-03-09T06:50:43.368Z,8.55
2019-03-09T06:53:14.006Z,8.57
2019-03-09T06:55:44.595Z,8.69
2019-03-09T06:58:15.212Z,8.71
2019-03-09T07:00:47.831Z,8.59
2019-03-09T07:03:18.589Z,8.68
2019-03-09T07:05:49.366Z,8.66
2019-03-09T07:08:23.974Z,8.67
2019-03-09T07:10:54.672Z,8.66
2019-03-09T07:13:25.290Z,8.67
2019-03-09T07:15:56.031Z,8.74
2019-03-09T07:18:30.408Z,8.82
2019-03-09T07:21:00.988Z,8.76
2019-03-09T07:23:36.183Z,8.74
2019-03-09T07:26:13.913Z,8.67
2019-03-09T07:28:45.512Z,8.69
2019-03-09T07:31:17.225Z,8.80
2019-03-09T07:33:47.881Z,8.77
2019-03-09T07:36:18.633Z,8.81
2019-03-09T07:38:49.936Z,8.80
2019-03-09T07:41:20.573Z,8.83
2019-03-09T07:43:51.229Z,9.07
2019-03-09T07:46:21.947Z,9.12
2019-03-09T07:49:03.123Z,9.17
2019-03-09T07:51:33.862Z,9.14
2019-03-09T07:54:04.612Z,9.22
2019-03-09T07:56:35.347Z,9.23
2019-03-09T07:59:06.083Z,9.21
2019-03-09T08:01:36.705Z,9.22
2019-03-09T08:04:07.354Z,9.20
2019-03-09T08:06:37.968Z,9.19
2019-03-09T08:09:09.069Z,9.23
2019-03-09T08:11:49.479Z,9.23
2019-03-09T08:14:20.169Z,9.20
2019-03-09T08:16:56.195Z,9.23
2019-03-09T08:19:41.197Z,9.26
2019-03-09T08:22:13.919Z,9.28
2019-03-09T08:24:44.526Z,9.20
2019-03-09T08:27:20.025Z,9.15
2019-03-09T08:30:02.084Z,9.17
2019-03-09T08:32:34.369Z,9.22
2019-03-09T08:35:05.431Z,9.34
2019-03-09T08:37:36.168Z,9.36
2019-03-09T08:40:18.406Z,9.39
2019-03-09T08:42:49.207Z,9.35
2019-03-09T08:45:20.065Z,9.40
2019-03-09T08:47:52.562Z,9.39
2019-03-09T08:50:23.270Z,9.41
2019-03-09T08:53:09.808Z,9.47
2019-03-09T08:55:44.518Z,9.45
2019-03-09T08:58:19.286Z,9.60
2019-03-09T09:00:50.059Z,9.48
2019-03-09T09:03:21.665Z,9.56
2019-03-09T09:05:52.394Z,9.56
2019-03-09T09:08:29.863Z,9.60
2019-03-09T09:11:06.625Z,9.68
2019-03-09T09:13:37.294Z,9.73
2019-03-09T09:16:08.050Z,9.77
2019-03-09T09:18:49.911Z,9.71
2019-03-09T09:21:23.729Z,9.76
2019-03-09T09:23:54.351Z,9.79
2019-03-09T09:26:26.970Z,9.81
2019-03-09T09:29:07.688Z,9.74
2019-03-09T09:31:43.235Z,9.86
2019-03-09T09:34:13.945Z,9.82
2019-03-09T09:36:46.226Z,9.85
2019-03-09T09:39:17.994Z,9.88
2019-03-09T09:41:48.798Z,9.87
2019-03-09T09:44:20.411Z,9.91
2019-03-09T09:46:51.179Z,10.07
2019-03-09T09:49:22.103Z,10.07
2019-03-09T09:51:52.761Z,10.05
2019-03-09T09:54:24.395Z,10.12
2019-03-09T09:57:06.607Z,10.04
2019-03-09T09:59:47.144Z,10.12
2019-03-09T10:02:17.923Z,10.06
2019-03-09T10:04:48.622Z,10.11
2019-03-09T10:07:19.291Z,10.02
2019-03-09T10:09:50.083Z,10.05
2019-03-09T10:12:20.750Z,10.13
2019-03-09T10:14:59.238Z,10.17
2019-03-09T10:17:29.952Z,10.22
2019-03-09T10:20:00.570Z,10.17
2019-03-09T10:22:31.388Z,10.22
2019-03-09T10:25:02.084Z,10.23
2019-03-09T10:27:37.853Z,10.12
2019-03-09T10:30:11.273Z,10.05
2019-03-09T10:32:54.689Z,10.04
2019-03-09T10:35:31.466Z,10.04
2019-03-09T10:38:05.246Z,10.11
2019-03-09T10:40:35.949Z,10.08
2019-03-09T10:43:06.610Z,10.07
2019-03-09T10:45:44.315Z,10.13
2019-03-09T10:48:17.554Z,10.11
2019-03-09T10:50:48.265Z,10.18
2019-03-09T10:53:25.815Z,10.22
2019-03-09T10:56:02.095Z,10.21
2019-03-09T10:58:32.796Z,10.32
2019-03-09T11:01:03.553Z,10.33
2019-03-09T11:03:34.241Z,10.30
2019-03-09T11:06:12.136Z,10.32
2019-03-09T11:08:44.912Z,10.35
2019-03-09T11:11:16.622Z,10.40
2019-03-09T11:13:52.004Z,10.44
2019-03-09T11:16:21.675Z,10.51
2019-03-09T11:18:56.039Z,10.45
2019-03-09T11:21:26.729Z,10.51
2019-03-09T11:23:57.473Z,10.57
2019-03-09T11:26:28.161Z,10.53
2019-03-09T11:28:58.854Z,10.53
2019-03-09T11:31:29.446Z,10.58
2019-03-09T11:34:00.125Z,10.53
2019-03-09T11:36:30.814Z,10.45
2019-03-09T11:39:01.308Z,10.50
2019-03-09T11:41:33.253Z,10.65
2019-03-09T11:44:11.656Z,10.83
2019-03-09T11:46:42.401Z,10.86
2019-03-09T11:49:14.133Z,10.91
2019-03-09T11:51:54.996Z,10.97
2019-03-09T11:54:25.529Z,11.15
2019-03-09T11:56:56.357Z,11.72
2019-03-09T11:59:27.027Z,11.49
2019-03-09T12:01:58.642Z,11.47
2019-03-09T12:04:29.263Z,11.52
2019-03-09T12:07:00.119Z,11.53
2019-03-09T12:09:30.813Z,11.55
2019-03-09T12:12:03.737Z,11.67
2019-03-09T12:14:34.420Z,11.81
2019-03-09T12:17:12.700Z,11.87
2019-03-09T12:19:38.570Z,12.02
2019-03-09T12:22:10.285Z,11.93
2019-03-09T12:24:40.981Z,11.75
2019-03-09T12:27:11.730Z,11.67
2019-03-09T12:29:42.450Z,11.61
2019-03-09T12:32:13.114Z,11.75
2019-03-09T12:34:43.966Z,12.03
2019-03-09T12:37:24.998Z,12.00
2019-03-09T12:39:55.612Z,12.02
2019-03-09T12:42:26.229Z,12.04
2019-03-09T12:44:56.956Z,11.98
2019-03-09T12:47:27.704Z,12.01
2019-03-09T12:50:04.492Z,12.09
2019-03-09T12:52:36.411Z,11.90
2019-03-09T12:55:07.194Z,11.91
2019-03-09T12:57:37.884Z,11.91
2019-03-09T13:00:16.615Z,11.86
2019-03-09T13:03:05.329Z,11.88
2019-03-09T13:05:35.902Z,11.92
2019-03-09T13:08:07.754Z,11.63
2019-03-09T13:10:43.609Z,11.77
2019-03-09T13:13:16.314Z,11.61
2019-03-09T13:15:47.009Z,11.63
2019-03-09T13:18:39.098Z,11.75
2019-03-09T13:21:14.720Z,11.72
2019-03-09T13:23:45.510Z,11.53
2019-03-09T13:26:17.124Z,11.45
2019-03-09T13:28:53.899Z,11.34
2019-03-09T13:31:24.571Z,11.13
2019-03-09T13:33:55.183Z,11.04
2019-03-09T13:36:26.007Z,10.92
2019-03-09T13:38:58.811Z,10.97
2019-03-09T13:41:29.782Z,10.94
2019-03-09T13:44:00.483Z,10.86
2019-03-09T13:46:31.257Z,10.42
2019-03-09T13:49:01.987Z,10.35
2019-03-09T13:51:37.993Z,10.41
2019-03-09T13:54:08.631Z,10.29
2019-03-09T13:56:39.402Z,10.23
2019-03-09T13:59:10.237Z,10.28
2019-03-09T14:01:41.261Z,10.29
2019-03-09T14:04:11.952Z,10.38
2019-03-09T14:06:46.586Z,10.44
2019-03-09T14:09:17.200Z,10.54
2019-03-09T14:11:54.863Z,10.49
2019-03-09T14:14:29.749Z,10.48
2019-03-09T14:17:00.365Z,10.40
2019-03-09T14:19:31.091Z,10.41
2019-03-09T14:22:03.816Z,10.43
2019-03-09T14:24:34.552Z,10.48
2019-03-09T14:27:10.844Z,10.45
2019-03-09T14:29:42.601Z,10.35
2019-03-09T14:32:13.925Z,10.07
2019-03-09T14:34:44.660Z,9.89
2019-03-09T14:37:15.426Z,9.97
2019-03-09T14:39:47.149Z,9.81
2019-03-09T14:42:21.304Z,9.80
2019-03-09T14:44:53.014Z,9.65
2019-03-09T14:47:23.668Z,9.23
2019-03-09T14:49:55.317Z,9.18
2019-03-09T14:52:32.321Z,9.08
2019-03-09T14:55:04.190Z,9.13
2019-03-09T14:57:34.916Z,9.24
2019-03-09T15:00:14.984Z,9.29
2019-03-09T15:02:48.938Z,9.37
2019-03-09T15:05:22.898Z,9.52
2019-03-09T15:07:53.639Z,9.68
2019-03-09T15:10:24.258Z,9.71
2019-03-09T15:12:54.936Z,9.81
2019-03-09T15:15:25.623Z,9.89
2019-03-09T15:17:59.839Z,9.93
2019-03-09T15:20:33.720Z,9.99
2019-03-09T15:23:05.513Z,9.97
2019-03-09T15:25:36.294Z,9.80
2019-03-09T15:28:07.973Z,9.81
2019-03-09T15:30:38.684Z,9.72
2019-03-09T15:33:09.396Z,9.82
2019-03-09T15:35:40.066Z,9.70
2019-03-09T15:38:10.910Z,9.71
2019-03-09T15:40:41.652Z,9.66
2019-03-09T15:43:12.447Z,9.74
2019-03-09T15:45:44.137Z,9.72
2019-03-09T15:48:18.417Z,9.61
2019-03-09T15:50:51.999Z,9.46
2019-03-09T15:53:24.429Z,9.45
2019-03-09T15:55:56.409Z,9.43
2019-03-09T15:58:28.868Z,9.46
2019-03-09T16:01:01.905Z,9.53
2019-03-09T16:03:35.017Z,9.58
2019-03-09T16:06:08.977Z,9.65
2019-03-09T16:08:42.642Z,9.76
2019-03-09T16:11:14.899Z,9.82
2019-03-09T16:13:45.831Z,9.80
2019-03-09T16:16:17.758Z,9.93
2019-03-09T16:18:51.889Z,8.87
2019-03-09T16:21:25.831Z,8.09
2019-03-09T16:23:59.084Z,7.66
2019-03-09T16:26:31.102Z,7.44
2019-03-09T16:29:05.130Z,7.19
2019-03-09T16:31:37.459Z,7.23
2019-03-09T16:34:08.568Z,7.29
2019-03-09T16:36:40.095Z,7.31
2019-03-09T16:39:10.788Z,7.46
2019-03-09T16:41:45.155Z,7.55
2019-03-09T16:44:17.138Z,7.59
2019-03-09T16:46:53.801Z,7.63
2019-03-09T16:49:25.389Z,7.77
2019-03-09T16:51:57.042Z,7.86
2019-03-09T16:54:29.690Z,7.99
2019-03-09T16:57:00.320Z,7.90
2019-03-09T16:59:41.277Z,7.88
2019-03-09T17:02:11.971Z,8.00
2019-03-09T17:05:05.460Z,8.13
2019-03-09T17:07:37.051Z,8.12
2019-03-09T17:10:14.580Z,8.16
2019-03-09T17:12:46.427Z,8.08
2019-03-09T17:15:24.335Z,8.05
2019-03-09T17:17:55.933Z,8.06
2019-03-09T17:20:26.621Z,8.11
2019-03-09T17:22:59.425Z,8.20
2019-03-09T17:25:33.143Z,8.10
2019-03-09T17:28:03.936Z,8.13
2019-03-09T17:30:34.589Z,8.14
2019-03-09T17:33:09.351Z,8.22
2019-03-09T17:35:43.098Z,8.17
2019-03-09T17:38:13.826Z,8.21
2019-03-09T17:40:45.667Z,8.19
2019-03-09T17:43:17.411Z,8.30
2019-03-09T17:45:49.377Z,8.24
2019-03-09T17:48:23.030Z,8.21
2019-03-09T17:50:56.007Z,8.18
2019-03-09T17:53:27.428Z,8.24
2019-03-09T17:55:59.142Z,8.17
2019-03-09T17:58:29.829Z,8.29
2019-03-09T18:01:00.565Z,8.26
2019-03-09T18:03:31.569Z,8.37
2019-03-09T18:06:08.338Z,8.47
2019-03-09T18:08:39.062Z,8.40
2019-03-09T18:11:10.821Z,8.46
2019-03-09T18:13:41.652Z,8.51
2019-03-09T18:16:13.344Z,8.53
2019-03-09T18:18:44.082Z,8.40
2019-03-09T18:21:15.908Z,8.39
2019-03-09T18:23:46.760Z,8.35
2019-03-09T18:26:19.431Z,8.39
2019-03-09T18:28:50.346Z,8.33
2019-03-09T18:31:22.212Z,8.43
2019-03-09T18:33:52.984Z,8.41
2019-03-09T18:36:27.058Z,8.32
2019-03-09T18:38:57.777Z,8.40
2019-03-09T18:41:28.660Z,8.38
2019-03-09T18:43:59.456Z,8.44
2019-03-09T18:46:32.224Z,8.48
2019-03-09T18:49:04.063Z,8.54
2019-03-09T18:51:34.859Z,8.71
2019-03-09T18:54:06.088Z,8.60
2019-03-09T18:56:37.287Z,8.52
2019-03-09T18:59:15.090Z,8.39
2019-03-09T19:01:46.890Z,8.62
2019-03-09T19:04:19.898Z,8.70
2019-03-09T19:06:50.666Z,8.78
2019-03-09T19:09:21.708Z,8.55
2019-03-09T19:11:52.419Z,8.86
2019-03-09T19:14:23.287Z,9.26
2019-03-09T19:16:54.088Z,9.70
2019-03-09T19:19:25.017Z,9.56
2019-03-09T19:21:59.061Z,9.94
2019-03-09T19:24:33.355Z,9.78
2019-03-09T19:27:06.183Z,10.02
2019-03-09T19:29:36.898Z,10.14
2019-03-09T19:32:08.775Z,10.24
2019-03-09T19:34:39.737Z,10.43
2019-03-09T19:37:14.818Z,10.23
2019-03-09T19:39:45.562Z,9.81
2019-03-09T19:42:16.409Z,9.42
2019-03-09T19:44:47.309Z,9.44
2019-03-09T19:47:18.091Z,9.24
2019-03-09T19:49:54.668Z,9.04
2019-03-09T19:52:28.356Z,9.03
2019-03-09T19:55:08.306Z,9.04
2019-03-09T19:57:44.514Z,8.81
2019-03-09T20:00:18.538Z,8.72
2019-03-09T20:02:55.591Z,8.64
2019-03-09T20:05:33.409Z,8.70
2019-03-09T20:08:10.020Z,8.66
2019-03-09T20:10:40.661Z,8.65
2019-03-09T20:13:11.521Z,8.50
2019-03-09T20:15:45.614Z,8.30
2019-03-09T20:18:16.465Z,8.34
2019-03-09T20:20:52.446Z,8.41
2019-03-09T20:23:32.243Z,8.36
2019-03-09T20:26:03.194Z,8.42
2019-03-09T20:28:35.392Z,8.41
2019-03-09T20:31:06.128Z,8.31
2019-03-09T20:33:46.860Z,8.40
2019-03-09T20:36:19.800Z,8.33
2019-03-09T20:38:51.763Z,8.40
2019-03-09T20:41:23.651Z,8.36
2019-03-09T20:43:55.048Z,8.43
2019-03-09T20:46:29.279Z,8.25
2019-03-09T20:49:09.278Z,8.27
2019-03-09T20:51:41.185Z,8.23
2019-03-09T20:54:12.991Z,8.25
2019-03-09T20:56:43.669Z,8.41
2019-03-09T20:59:14.376Z,8.33
2019-03-09T21:01:45.109Z,8.40
2019-03-09T21:04:16.685Z,8.37
2019-03-09T21:06:49.371Z,8.37
2019-03-09T21:09:20.000Z,8.36
2019-03-09T21:11:54.111Z,8.27
2019-03-09T21:14:24.861Z,8.31
2019-03-09T21:16:55.555Z,8.22
2019-03-09T21:19:26.227Z,8.24
2019-03-09T21:21:56.813Z,8.40
2019-03-09T21:24:27.494Z,8.25
2019-03-09T21:27:00.069Z,8.21
2019-03-09T21:29:31.757Z,8.22
2019-03-09T21:32:02.621Z,8.10
2019-03-09T21:34:33.330Z,8.16
2019-03-09T21:37:11.807Z,8.21
2019-03-09T21:39:42.425Z,8.24
2019-03-09T21:42:13.090Z,8.25
2019-03-09T21:44:43.894Z,8.23
2019-03-09T21:47:16.496Z,8.29
2019-03-09T21:49:47.242Z,8.26
2019-03-09T21:52:17.840Z,8.38
2019-03-09T21:54:49.458Z,8.30
2019-03-09T21:57:19.950Z,8.37
2019-03-09T21:59:50.712Z,8.32
2019-03-09T22:02:21.417Z,8.25
2019-03-09T22:04:53.039Z,8.35
2019-03-09T22:07:31.790Z,8.32
2019-03-09T22:10:02.516Z,8.31
2019-03-09T22:12:33.886Z,8.27
2019-03-09T22:15:11.848Z,8.30
2019-03-09T22:17:47.661Z,8.26
2019-03-09T22:20:20.475Z,8.30
2019-03-09T22:22:50.736Z,8.20
2019-03-09T22:25:21.541Z,8.33
2019-03-09T22:27:58.389Z,8.27
2019-03-09T22:30:29.118Z,8.40
2019-03-09T22:32:59.783Z,8.32
2019-03-09T22:35:36.675Z,8.33
2019-03-09T22:38:15.184Z,8.35
2019-03-09T22:40:46.421Z,8.38
2019-03-09T22:43:17.140Z,8.43
2019-03-09T22:45:48.851Z,8.43
2019-03-09T22:48:23.804Z,8.34
2019-03-09T22:50:54.499Z,8.48
2019-03-09T22:53:25.070Z,8.50
2019-03-09T22:56:08.642Z,8.48
2019-03-09T22:58:39.574Z,8.46
2019-03-09T23:01:27.864Z,8.52
2019-03-09T23:03:59.909Z,8.49
2019-03-09T23:06:30.881Z,8.56
2019-03-09T23:09:30.354Z,8.61
2019-03-09T23:12:12.394Z,8.65
2019-03-09T23:14:43.287Z,8.60
2019-03-09T23:17:24.896Z,8.64
2019-03-09T23:19:55.569Z,8.65
2019-03-09T23:22:30.370Z,8.62
2019-03-09T23:25:15.770Z,8.64
2019-03-09T23:31:01.630Z,8.55
2019-03-09T23:33:51.433Z,8.58
2019-03-09T23:36:22.419Z,8.46
2019-03-09T23:38:53.334Z,8.56
2019-03-09T23:41:34.433Z,8.52
2019-03-09T23:44:05.650Z,8.52
2019-03-09T23:46:36.480Z,8.56
2019-03-09T23:49:07.141Z,8.56
2019-03-09T23:51:38.188Z,8.55
2019-03-09T23:54:08.830Z,8.53
2019-03-09T23:56:50.306Z,8.53
2019-03-09T23:59:23.114Z,8.68
